Terminal Aerodrome Forecast
Issued by NWS

Home | Current Version | Previous Version | Text Only | Print | Product List | Glossary On
Versions: 1 2 3 4 5 6 7 8 9 10 11 12 13 14 15 16 17 18 19 20 21 22 23 24 25
000
FTUS43 KDLH 241700
TAFHIB
TAF
KHIB 241740Z 2418/2518 14005KT P6SM SCT080 OVC130
      TEMPO 2420/2424 -SHRA BKN050 OVC100
     FM250200 12003KT P6SM VCSH OVC070
     FM251100 07004KT 6SM -RA BR OVC045
      TEMPO 2514/2518 5SM -RA BR BKN015 OVC045=

USA.gov is the U.S. government's official web portal to all federal, state and local government web resources and services.